Time;durP1;ratioP1;P1;durP2;ratioP2;P2;SDS_P1;SDS_P2;PMS_P1;PMS_P2;Temp;Humidity;BMP_temperature;BMP_pressure;BME280_temperature;BME280_humidity;BME280_pressure;Samples;Min_cycle;Max_cycle;Signal;HPM_P1;HPM_P2
2022/07/28 00:00:48;;;;;;;7.35;4.90;;;;;;;20.07;82.85;99726.15;1824233;76;21069;-76
2022/07/28 00:03:15;;;;;;;5.25;4.75;;;;;;;20.07;82.80;99727.00;1803419;77;21560;-76
2022/07/28 00:05:43;;;;;;;6.33;4.92;;;;;;;20.13;82.77;99729.30;1799466;77;21482;-74
2022/07/28 00:08:11;;;;;;;6.47;5.33;;;;;;;20.06;82.78;99725.34;1798582;77;21045;-74
2022/07/28 00:10:38;;;;;;;5.08;4.58;;;;;;;19.99;82.87;99721.91;1809805;77;21079;-74
2022/07/28 00:13:06;;;;;;;5.55;4.85;;;;;;;19.89;83.00;99731.09;1821126;77;21506;-74
2022/07/28 00:15:34;;;;;;;6.03;4.50;;;;;;;19.86;82.96;99731.53;1817688;77;21025;-77
2022/07/28 00:18:02;;;;;;;5.87;4.80;;;;;;;19.88;82.69;99730.28;1815001;76;21018;-77
2022/07/28 00:20:29;;;;;;;8.58;5.30;;;;;;;19.80;82.50;99723.88;1813288;77;21033;-75
2022/07/28 00:22:56;;;;;;;7.08;5.53;;;;;;;19.72;82.53;99727.70;1773851;78;21580;-75
2022/07/28 00:25:23;;;;;;;5.37;4.87;;;;;;;19.64;82.78;99729.31;1767477;78;21765;-76
2022/07/28 00:27:49;;;;;;;6.12;4.53;;;;;;;19.59;82.90;99730.02;1746024;79;21011;-75
2022/07/28 00:30:15;;;;;;;7.85;5.17;;;;;;;19.61;82.85;99722.52;1827858;77;21065;-75
2022/07/28 00:32:43;;;;;;;7.62;5.92;;;;;;;19.60;83.16;99721.39;1824572;77;20998;-78
2022/07/28 00:35:09;;;;;;;6.45;5.50;;;;;;;19.55;83.41;99726.13;1824057;77;21516;-75
2022/07/28 00:37:36;;;;;;;5.80;4.60;;;;;;;19.48;83.47;99725.92;1809045;77;21179;-73
2022/07/28 00:40:03;;;;;;;7.92;5.10;;;;;;;19.48;83.45;99728.08;1835106;77;21048;-76
2022/07/28 00:42:30;;;;;;;8.35;4.85;;;;;;;19.54;83.35;99728.52;1814681;76;21041;-75
2022/07/28 00:44:56;;;;;;;5.22;4.53;;;;;;;19.52;83.41;99733.84;1820472;78;21013;-76
2022/07/28 00:47:23;;;;;;;6.67;4.90;;;;;;;19.48;83.52;99743.43;1822756;77;21342;-73
2022/07/28 00:49:49;;;;;;;5.10;4.70;;;;;;;19.40;83.65;99736.48;1818553;78;21210;-73
2022/07/28 00:52:17;;;;;;;7.83;4.30;;;;;;;19.42;83.73;99739.77;1807711;77;21580;-76
2022/07/28 00:54:44;;;;;;;5.08;4.55;;;;;;;19.48;83.54;99742.09;1823198;77;21013;-74
2022/07/28 00:57:10;;;;;;;5.72;5.12;;;;;;;19.47;83.57;99739.08;1808283;77;21177;-75
2022/07/28 00:59:38;;;;;;;4.92;4.40;;;;;;;19.39;83.70;99734.82;1823535;77;20973;-75
2022/07/28 01:02:06;;;;;;;5.55;4.70;;;;;;;19.30;83.95;99741.59;1812562;77;21327;-73
2022/07/28 01:04:33;;;;;;;7.45;5.03;;;;;;;19.31;84.22;99741.34;1811664;77;21144;-76
2022/07/28 01:07:27;;;;;;;6.35;5.33;;;;;;;19.28;84.25;99736.91;1832724;77;20975;-73
2022/07/28 01:10:03;;;;;;;6.15;5.08;;;;;;;19.22;84.53;99737.33;1830952;77;20993;-75
2022/07/28 01:12:50;;;;;;;5.42;4.90;;;;;;;19.12;84.70;99735.66;1838024;77;20971;-76
2022/07/28 01:15:39;;;;;;;6.05;4.90;;;;;;;19.11;84.91;99734.02;1808643;77;21244;-75
2022/07/28 01:18:16;;;;;;;7.12;5.25;;;;;;;19.12;84.92;99723.01;1808318;77;21075;-75
2022/07/28 01:20:55;;;;;;;6.92;5.75;;;;;;;19.04;85.23;99724.66;1789125;79;21546;-74
2022/07/28 01:23:36;;;;;;;5.35;4.90;;;;;;;18.96;85.55;99735.20;1763960;79;21007;-75
2022/07/28 01:26:56;;;;;;;6.12;4.90;;;;;;;18.95;85.65;99740.80;1765808;80;21471;-74
2022/07/28 01:29:49;;;;;;;4.72;4.33;;;;;;;18.96;85.62;99739.77;1765805;80;21131;-74
2022/07/28 01:32:24;;;;;;;5.37;4.70;;;;;;;18.85;85.84;99745.35;1728849;79;21033;-74
2022/07/28 01:35:05;;;;;;;5.40;4.62;;;;;;;18.76;86.09;99741.30;1747135;80;21585;-73
2022/07/28 01:37:32;;;;;;;7.83;4.58;;;;;;;18.78;86.11;99749.97;1752759;79;21095;-73
2022/07/28 01:40:02;;;;;;;6.10;5.00;;;;;;;18.84;85.91;99753.14;1734936;79;21590;-78
2022/07/28 01:42:34;;;;;;;6.60;5.10;;;;;;;18.83;85.92;99750.13;1766594;80;21132;-72
2022/07/28 01:45:01;;;;;;;6.40;4.35;;;;;;;18.76;85.89;99749.37;1746867;79;21074;-73
2022/07/28 01:47:29;;;;;;;6.30;4.67;;;;;;;18.71;86.12;99758.61;1747527;79;21061;-74
2022/07/28 01:49:57;;;;;;;5.85;4.33;;;;;;;18.73;86.07;99756.52;1753788;80;20998;-74
2022/07/28 01:52:24;;;;;;;5.30;4.47;;;;;;;18.72;86.13;99754.89;1757635;81;21610;-75
2022/07/28 01:54:52;;;;;;;5.35;4.55;;;;;;;18.68;86.32;99755.85;1802023;77;21096;-76
2022/07/28 01:57:18;;;;;;;4.87;4.47;;;;;;;18.65;86.41;99753.06;1795179;77;21385;-74
2022/07/28 01:59:45;;;;;;;5.08;4.58;;;;;;;18.67;86.56;99751.50;1833083;77;21131;-73
2022/07/28 02:02:13;;;;;;;4.35;3.95;;;;;;;18.73;86.39;99768.10;1768093;79;21021;-75
2022/07/28 02:04:40;;;;;;;5.00;4.37;;;;;;;18.68;86.51;99773.34;1820128;77;21497;-76
2022/07/28 02:07:07;;;;;;;5.05;4.37;;;;;;;18.62;86.62;99766.13;1824578;77;21556;-72
2022/07/28 02:09:33;;;;;;;5.60;4.33;;;;;;;18.62;86.76;99763.44;1799497;77;21040;-72
2022/07/28 02:12:01;;;;;;;5.50;4.80;;;;;;;18.71;86.55;99765.34;1771117;79;21028;-72
2022/07/28 02:14:27;;;;;;;5.25;4.75;;;;;;;18.71;86.49;99761.30;1814124;77;21006;-74
2022/07/28 02:17:13;;;;;;;5.15;4.55;;;;;;;18.68;86.52;99761.23;1799593;77;21024;-72
2022/07/28 02:19:41;;;;;;;5.80;5.12;;;;;;;18.63;86.51;99755.15;1805548;77;21588;-71
2022/07/28 02:22:09;;;;;;;6.62;4.30;;;;;;;18.65;86.22;99746.86;1831250;77;21065;-72
2022/07/28 02:24:36;;;;;;;6.47;4.58;;;;;;;18.69;86.05;99751.28;1810441;78;21021;-73
2022/07/28 02:27:30;;;;;;;6.67;5.03;;;;;;;18.64;86.08;99753.30;1826808;77;21045;-73
2022/07/28 02:30:08;;;;;;;3.95;3.55;;;;;;;18.57;86.25;99764.64;1835499;77;21076;-71
2022/07/28 02:32:53;;;;;;;5.15;4.20;;;;;;;18.58;86.20;99765.77;1804660;78;21443;-71
2022/07/28 02:35:41;;;;;;;5.50;4.12;;;;;;;18.63;86.10;99769.95;1825816;78;21527;-72
2022/07/28 02:38:13;;;;;;;4.80;4.40;;;;;;;18.57;86.07;99762.77;1815903;77;21369;-71
2022/07/28 02:40:42;;;;;;;4.70;4.25;;;;;;;18.54;86.25;99768.56;1831523;77;21028;-72
2022/07/28 02:43:17;;;;;;;4.30;3.90;;;;;;;18.59;85.88;99774.66;1803861;78;21025;-72
2022/07/28 02:45:47;;;;;;;6.45;3.67;;;;;;;18.65;85.45;99781.31;1806691;78;21078;-71
2022/07/28 02:48:16;;;;;;;6.53;3.72;;;;;;;18.64;85.37;99774.83;1825759;78;21522;-71
2022/07/28 02:50:44;;;;;;;6.28;3.90;;;;;;;18.63;85.13;99778.55;1807066;77;21841;-72
2022/07/28 02:53:11;;;;;;;3.67;3.37;;;;;;;18.59;84.97;99782.20;1830491;77;21513;-73
2022/07/28 02:55:38;;;;;;;5.28;3.72;;;;;;;18.67;84.77;99780.56;1819888;77;21535;-70
2022/07/28 02:58:06;;;;;;;3.52;3.22;;;;;;;18.78;84.41;99780.38;1819564;77;21220;-72
2022/07/28 03:00:33;;;;;;;4.60;4.10;;;;;;;18.78;84.48;99783.08;1814511;77;20998;-73
2022/07/28 03:03:00;;;;;;;4.28;3.62;;;;;;;18.74;84.36;99785.09;1822248;77;21040;-72
2022/07/28 03:05:27;;;;;;;5.37;2.85;;;;;;;18.70;84.29;99785.20;1846727;76;21073;-72
2022/07/28 03:07:55;;;;;;;4.90;3.55;;;;;;;18.73;84.31;99790.98;1820138;77;21005;-73
2022/07/28 03:10:24;;;;;;;4.15;3.42;;;;;;;18.79;84.10;99789.27;1794341;78;21233;-72
2022/07/28 03:12:52;;;;;;;3.98;3.58;;;;;;;18.71;83.98;99787.68;1816375;77;21026;-73
2022/07/28 03:15:19;;;;;;;4.08;3.70;;;;;;;18.65;83.90;99786.69;1821288;77;21037;-71
2022/07/28 03:17:45;;;;;;;3.20;2.80;;;;;;;18.62;83.82;99788.50;1811365;75;21590;-71
2022/07/28 03:20:12;;;;;;;4.60;3.50;;;;;;;18.67;83.81;99794.55;1787090;77;21081;-73
2022/07/28 03:22:39;;;;;;;6.12;3.80;;;;;;;18.73;83.60;99785.59;1810562;77;21093;-72
2022/07/28 03:25:14;;;;;;;4.58;3.55;;;;;;;18.71;83.57;99784.17;1819996;78;20989;-71
2022/07/28 03:27:44;;;;;;;4.83;4.33;;;;;;;18.67;83.54;99783.26;1774447;80;21112;-71
2022/07/28 03:30:15;;;;;;;5.72;3.60;;;;;;;18.64;83.59;99783.72;1816733;77;21099;-72
2022/07/28 03:32:49;;;;;;;4.33;3.35;;;;;;;18.69;83.45;99780.35;1760735;78;21084;-74
2022/07/28 03:35:15;;;;;;;3.77;3.37;;;;;;;18.80;83.13;99781.02;1822238;77;21095;-73
2022/07/28 03:37:55;;;;;;;6.87;3.95;;;;;;;18.76;82.97;99778.44;1811272;77;21067;-73
2022/07/28 03:40:25;;;;;;;5.72;3.33;;;;;;;18.71;83.04;99787.68;1760009;80;21127;-73
2022/07/28 03:42:52;;;;;;;4.60;3.15;;;;;;;18.69;82.74;99788.95;1809100;77;21036;-72
2022/07/28 03:45:19;;;;;;;5.30;3.50;;;;;;;18.70;82.50;99789.24;1802615;77;21119;-71
2022/07/28 03:47:56;;;;;;;5.00;3.47;;;;;;;18.78;82.24;99798.41;1787003;78;21264;-74
2022/07/28 03:50:24;;;;;;;3.33;3.02;;;;;;;18.78;82.21;99792.49;1755544;80;21045;-72
2022/07/28 03:52:50;;;;;;;3.33;2.92;;;;;;;18.78;81.95;99790.33;1812849;77;21048;-73
2022/07/28 03:55:18;;;;;;;3.92;2.42;;;;;;;18.77;81.72;99792.70;1806578;77;21145;-75
2022/07/28 03:57:44;;;;;;;5.90;2.87;;;;;;;18.83;80.85;99793.20;1806140;78;21079;-74
2022/07/28 04:00:13;;;;;;;4.83;3.10;;;;;;;18.93;80.03;99804.80;1803049;77;21597;-73
2022/07/28 04:02:43;;;;;;;3.90;2.70;;;;;;;18.93;79.48;99806.15;1775108;80;21060;-74
2022/07/28 04:05:15;;;;;;;3.60;2.45;;;;;;;18.93;78.76;99805.65;1811141;77;21020;-75
2022/07/28 04:07:44;;;;;;;2.87;2.58;;;;;;;18.95;78.64;99808.09;1813402;77;21485;-73
2022/07/28 04:10:13;;;;;;;4.75;2.37;;;;;;;18.97;78.35;99812.23;1820074;77;21008;-74
2022/07/28 04:12:54;;;;;;;5.42;2.72;;;;;;;19.05;77.91;99808.44;1820430;77;20986;-74
2022/07/28 04:15:22;;;;;;;3.90;2.50;;;;;;;19.17;77.49;99817.41;1817526;77;21517;-72
2022/07/28 04:17:49;;;;;;;5.65;3.20;;;;;;;19.20;77.43;99816.14;1763486;78;21064;-73
2022/07/28 04:20:16;;;;;;;5.87;3.25;;;;;;;19.21;77.35;99819.14;1785888;77;21088;-71
2022/07/28 04:22:44;;;;;;;5.78;3.20;;;;;;;19.23;77.23;99822.44;1804208;77;21517;-71
2022/07/28 04:25:11;;;;;;;4.75;2.60;;;;;;;19.29;76.50;99818.84;1789396;77;21126;-73
2022/07/28 04:27:40;;;;;;;10.30;2.65;;;;;;;19.36;76.27;99818.26;1807901;77;21045;-73
2022/07/28 04:30:13;;;;;;;6.30;2.52;;;;;;;19.49;75.75;99820.00;1814129;77;21057;-73
2022/07/28 04:32:40;;;;;;;3.80;3.10;;;;;;;19.64;75.15;99823.13;1814417;77;21041;-72
2022/07/28 04:35:07;;;;;;;4.75;2.58;;;;;;;19.72;74.94;99827.42;1811627;78;21009;-73
2022/07/28 04:37:35;;;;;;;3.72;2.85;;;;;;;19.78;74.13;99830.56;1810088;77;21136;-71
2022/07/28 04:40:05;;;;;;;3.37;2.72;;;;;;;19.86;74.24;99821.84;1806519;77;22180;-73
2022/07/28 04:42:34;;;;;;;4.42;3.12;;;;;;;19.91;73.96;99821.99;1825986;77;21002;-72
2022/07/28 04:45:03;;;;;;;3.08;2.45;;;;;;;19.95;73.71;99827.22;1814257;79;21077;-74
2022/07/28 04:47:30;;;;;;;3.58;2.80;;;;;;;19.98;73.80;99830.83;1802568;78;21017;-72
2022/07/28 04:49:56;;;;;;;3.70;3.12;;;;;;;20.05;73.81;99830.22;1755251;80;21241;-71
2022/07/28 04:52:24;;;;;;;7.80;3.52;;;;;;;20.16;73.96;99835.34;1737310;81;21618;-72
2022/07/28 04:54:50;;;;;;;4.45;3.37;;;;;;;20.23;73.91;99839.59;1774421;80;21049;-73
2022/07/28 04:57:18;;;;;;;4.12;2.77;;;;;;;20.44;73.63;99842.84;1772093;80;21033;-72
2022/07/28 04:59:44;;;;;;;4.83;3.33;;;;;;;20.62;73.31;99834.69;1738560;80;21019;-73
2022/07/28 05:02:11;;;;;;;4.03;2.65;;;;;;;20.74;72.54;99833.89;1749499;80;21533;-72
2022/07/28 05:04:38;;;;;;;5.47;3.20;;;;;;;20.85;71.91;99830.38;1755657;80;21265;-83
2022/07/28 05:07:05;;;;;;;4.97;3.00;;;;;;;21.05;71.30;99834.62;1744320;81;21110;-81
2022/07/28 05:09:33;;;;;;;6.25;3.72;;;;;;;21.17;70.50;99832.22;1749012;81;21448;-80
2022/07/28 05:11:59;;;;;;;3.12;2.80;;;;;;;21.25;69.67;99843.20;1770984;80;21128;-74
2022/07/28 05:14:26;;;;;;;6.60;3.60;;;;;;;21.26;69.21;99842.66;1737187;81;21118;-75
2022/07/28 05:16:54;;;;;;;4.70;3.42;;;;;;;21.26;69.32;99835.37;1739757;80;21533;-78
2022/07/28 05:19:20;;;;;;;5.05;3.15;;;;;;;21.23;69.35;99837.72;1803889;78;21034;-77
2022/07/28 05:21:47;;;;;;;5.33;2.90;;;;;;;21.18;69.24;99843.84;1834674;77;21037;-76
2022/07/28 05:24:14;;;;;;;6.20;3.08;;;;;;;21.14;69.25;99849.42;1823772;77;21096;-76
2022/07/28 05:26:40;;;;;;;4.20;3.00;;;;;;;21.11;68.98;99855.28;1806761;78;21142;-77
2022/07/28 05:29:07;;;;;;;3.75;3.12;;;;;;;21.04;69.04;99847.84;1766133;79;20969;-77
2022/07/28 05:31:34;;;;;;;4.10;2.83;;;;;;;20.97;69.36;99852.80;1786885;79;20935;-78
2022/07/28 05:34:01;;;;;;;3.72;2.67;;;;;;;20.90;68.91;99856.16;1824801;77;20939;-78
2022/07/28 05:36:28;;;;;;;3.60;2.40;;;;;;;20.81;69.12;99854.86;1815000;77;20934;-77
2022/07/28 05:38:55;;;;;;;3.52;2.77;;;;;;;20.78;69.36;99852.61;1818990;78;21164;-77
2022/07/28 05:41:22;;;;;;;4.87;2.70;;;;;;;20.76;69.41;99847.97;1809260;77;21608;-81
2022/07/28 05:43:48;;;;;;;4.00;3.00;;;;;;;20.78;69.30;99848.56;1807088;77;21537;-80
2022/07/28 05:46:15;;;;;;;5.03;2.70;;;;;;;20.83;68.76;99855.98;1811885;77;20990;-81
2022/07/28 05:48:42;;;;;;;4.95;3.00;;;;;;;20.86;68.47;99858.20;1810733;77;21017;-80
2022/07/28 05:51:08;;;;;;;5.58;3.02;;;;;;;20.90;68.18;99860.72;1800822;77;21775;-81
2022/07/28 05:53:35;;;;;;;5.37;2.60;;;;;;;20.93;68.02;99856.22;1809228;77;21057;-81
2022/07/28 05:56:02;;;;;;;7.65;3.20;;;;;;;20.94;67.81;99859.23;1800378;78;21064;-80
2022/07/28 05:58:29;;;;;;;5.60;2.62;;;;;;;20.95;67.82;99869.77;1834474;77;21042;-80
2022/07/28 06:01:00;;;;;;;2.90;2.30;;;;;;;20.95;67.05;99868.42;1824031;77;21017;-79
2022/07/28 06:03:30;;;;;;;4.60;2.50;;;;;;;20.96;67.01;99872.78;1834743;77;21030;-80
2022/07/28 06:05:57;;;;;;;5.97;3.10;;;;;;;21.01;66.98;99873.42;1801906;78;21045;-80
2022/07/28 06:08:23;;;;;;;6.90;2.42;;;;;;;21.07;66.54;99883.81;1812567;78;21045;-81
2022/07/28 06:11:08;;;;;;;3.05;2.37;;;;;;;21.15;65.79;99878.91;1792345;78;21080;-79
2022/07/28 06:13:30;;;;;;;3.70;2.22;;;;;;;21.21;65.62;99882.02;1804690;78;21473;-82
2022/07/28 06:15:58;;;;;;;4.03;2.52;;;;;;;21.29;65.45;99877.33;1822826;78;21239;-81
2022/07/28 06:18:26;;;;;;;3.27;2.47;;;;;;;21.33;64.92;99887.95;1811986;75;21022;-80
2022/07/28 06:20:52;;;;;;;3.67;2.22;;;;;;;21.34;64.89;99891.78;1793424;77;21517;-81
2022/07/28 06:23:22;;;;;;;3.12;2.42;;;;;;;21.37;65.20;99891.83;1743363;81;21005;-78
2022/07/28 06:25:50;;;;;;;3.37;2.45;;;;;;;21.41;65.04;99894.34;1764227;79;21263;-79
2022/07/28 06:28:17;;;;;;;4.60;2.90;;;;;;;21.47;65.32;99895.31;1762652;80;21606;-81
2022/07/28 06:30:47;;;;;;;5.05;2.58;;;;;;;21.53;64.89;99899.23;1760783;80;20991;-84
2022/07/28 06:33:15;;;;;;;5.30;2.52;;;;;;;21.56;64.60;99900.66;1744739;80;21061;-83
2022/07/28 06:35:42;;;;;;;4.40;2.50;;;;;;;21.60;64.60;99906.70;1742128;80;21015;-84
2022/07/28 06:38:10;;;;;;;6.12;2.47;;;;;;;21.66;64.07;99902.77;1798107;79;21033;-86
2022/07/28 06:40:38;;;;;;;3.55;2.60;;;;;;;21.68;63.80;99912.27;1818309;77;21223;-77
2022/07/28 06:43:05;;;;;;;2.83;2.15;;;;;;;21.70;63.62;99910.16;1802054;76;20974;-79
2022/07/28 06:45:32;;;;;;;3.67;1.98;;;;;;;21.75;63.18;99907.56;1827713;76;21487;-80
2022/07/28 06:47:59;;;;;;;3.22;2.33;;;;;;;21.83;62.90;99910.44;1805194;79;21073;-80
2022/07/28 06:50:25;;;;;;;5.20;2.52;;;;;;;21.88;62.84;99913.23;1821264;77;21041;-79
2022/07/28 06:52:56;;;;;;;5.87;3.15;;;;;;;21.95;62.50;99917.17;1787479;78;21089;-76
2022/07/28 06:55:24;;;;;;;3.12;2.37;;;;;;;22.01;62.23;99912.69;1831163;77;21501;-80
2022/07/28 06:57:51;;;;;;;3.98;3.00;;;;;;;22.09;61.84;99911.77;1821051;77;21074;-80
2022/07/28 07:00:18;;;;;;;6.50;3.08;;;;;;;22.16;61.19;99910.30;1783740;78;21069;-80
2022/07/28 07:02:47;;;;;;;5.20;3.70;;;;;;;22.20;61.23;99908.75;1802093;79;21006;-82
2022/07/28 07:05:13;;;;;;;7.62;3.60;;;;;;;22.27;61.28;99913.53;1807686;77;21057;-76
2022/07/28 07:07:41;;;;;;;5.35;3.47;;;;;;;22.34;60.77;99902.00;1835492;76;20991;-80
2022/07/28 07:10:08;;;;;;;7.05;4.42;;;;;;;22.39;60.98;99908.06;1803667;77;21061;-79
2022/07/28 07:12:37;;;;;;;5.25;4.30;;;;;;;22.45;61.41;99911.15;1821955;77;21484;-81
2022/07/28 07:15:04;;;;;;;5.83;4.33;;;;;;;22.52;61.54;99910.48;1798407;77;21048;-82
2022/07/28 07:17:32;;;;;;;7.67;4.60;;;;;;;22.57;61.23;99921.38;1815157;76;21478;-81
2022/07/28 07:20:00;;;;;;;6.15;4.17;;;;;;;22.60;61.25;99916.03;1828783;76;21085;-80
2022/07/28 07:22:27;;;;;;;7.30;4.40;;;;;;;22.63;60.97;99910.66;1824658;77;21314;-81
2022/07/28 07:24:54;;;;;;;7.42;5.10;;;;;;;22.65;61.00;99916.64;1820968;77;21029;-78
2022/07/28 07:27:21;;;;;;;7.40;4.42;;;;;;;22.70;60.78;99919.45;1821940;77;21016;-76
2022/07/28 07:29:48;;;;;;;7.53;3.62;;;;;;;22.71;60.56;99907.00;1796441;78;21216;-76
2022/07/28 07:32:14;;;;;;;7.12;3.70;;;;;;;22.77;60.54;99920.09;1809421;78;21056;-76
2022/07/28 07:34:42;;;;;;;9.78;3.42;;;;;;;22.82;60.07;99913.42;1809010;77;20950;-79
2022/07/28 07:37:12;;;;;;;8.03;3.25;;;;;;;22.85;59.91;99919.72;1812047;77;21005;-79
2022/07/28 07:39:40;;;;;;;6.15;3.72;;;;;;;22.88;59.82;99921.92;1806252;77;21013;-83
2022/07/28 07:42:07;;;;;;;7.33;3.87;;;;;;;22.92;59.55;99925.78;1818815;77;21092;-80
2022/07/28 07:44:33;;;;;;;15.78;3.50;;;;;;;22.93;59.45;99928.79;1841253;77;21033;-79
2022/07/28 07:47:00;;;;;;;9.00;3.33;;;;;;;22.96;59.45;99930.99;1827419;77;21026;-76
2022/07/28 07:49:27;;;;;;;5.15;3.30;;;;;;;22.99;59.34;99925.64;1826395;77;21017;-76
2022/07/28 07:51:54;;;;;;;7.10;3.67;;;;;;;23.02;59.34;99927.02;1832196;77;21033;-81
2022/07/28 07:54:22;;;;;;;5.53;2.98;;;;;;;23.05;59.44;99927.93;1823861;77;21132;-87
2022/07/28 07:56:50;;;;;;;5.62;3.25;;;;;;;23.07;59.28;99926.61;1829730;77;21005;-79
2022/07/28 07:59:16;;;;;;;7.25;3.62;;;;;;;23.10;59.10;99921.22;1816121;77;21073;-80
2022/07/28 08:01:44;;;;;;;7.25;3.27;;;;;;;23.15;59.01;99926.73;1824026;77;22523;-82
2022/07/28 08:04:11;;;;;;;5.65;3.02;;;;;;;23.21;58.60;99928.99;1814661;77;20986;-80
2022/07/28 08:06:38;;;;;;;5.40;3.05;;;;;;;23.26;58.49;99925.02;1808785;77;21690;-81
2022/07/28 08:09:04;;;;;;;4.50;2.80;;;;;;;23.29;58.26;99926.67;1829818;77;21060;-80
2022/07/28 08:11:31;;;;;;;7.10;3.30;;;;;;;23.34;57.92;99934.89;1817164;77;21044;-78
2022/07/28 08:13:58;;;;;;;5.00;2.98;;;;;;;23.40;57.92;99933.63;1816406;77;21563;-78
2022/07/28 08:16:25;;;;;;;4.35;2.85;;;;;;;23.45;57.95;99938.59;1833590;77;21153;-78
2022/07/28 08:18:56;;;;;;;6.58;4.35;;;;;;;23.52;57.78;99932.44;1813924;77;21136;-80
2022/07/28 08:21:21;;;;;;;5.47;3.92;;;;;;;23.61;57.60;99937.45;1819488;77;21037;-81
2022/07/28 08:23:48;;;;;;;5.17;3.30;;;;;;;23.67;57.39;99941.88;1833045;77;21057;-80
2022/07/28 08:26:15;;;;;;;7.60;4.20;;;;;;;23.72;57.08;99946.00;1820068;77;20998;-80
2022/07/28 08:28:42;;;;;;;7.87;3.60;;;;;;;23.79;56.92;99936.38;1815496;76;21025;-82
2022/07/28 08:31:08;;;;;;;7.50;5.25;;;;;;;23.81;56.95;99936.40;1813958;78;21185;-80
2022/07/28 08:33:37;;;;;;;8.08;4.20;;;;;;;23.87;56.81;99938.64;1817890;78;20967;-78
2022/07/28 08:36:05;;;;;;;8.85;4.40;;;;;;;23.93;56.84;99948.48;1821092;78;21079;-80
2022/07/28 08:38:31;;;;;;;6.40;4.50;;;;;;;24.01;56.56;99944.00;1817284;77;21529;-85
2022/07/28 08:40:58;;;;;;;6.22;4.65;;;;;;;24.12;56.41;99944.39;1818536;77;20986;-85
2022/07/28 08:43:32;;;;;;;7.20;4.17;;;;;;;24.20;56.20;99947.73;1822326;78;21210;-80
2022/07/28 08:46:03;;;;;;;5.30;3.40;;;;;;;24.29;56.37;99944.87;1799973;78;21050;-80
2022/07/28 08:48:32;;;;;;;4.65;3.20;;;;;;;24.40;55.25;99943.10;1820227;77;21509;-80
2022/07/28 08:51:04;;;;;;;7.67;3.60;;;;;;;24.50;54.55;99943.20;1811974;77;21097;-83
2022/07/28 08:53:35;;;;;;;;;;;;;;;24.56;54.59;99934.61;1824032;77;20990;-87
2022/07/28 08:56:09;;;;;;;6.42;3.98;;;;;;;24.62;54.80;99932.22;1802221;77;21115;-82
2022/07/28 08:58:36;;;;;;;3.85;3.08;;;;;;;24.71;54.74;99934.21;1819440;77;21054;-80
2022/07/28 09:01:09;;;;;;;4.97;3.20;;;;;;;24.78;53.97;99929.11;1796351;77;21055;-82
2022/07/28 09:03:38;;;;;;;9.68;3.22;;;;;;;24.85;53.07;99931.89;1809742;78;21021;-85
2022/07/28 09:06:06;;;;;;;4.92;3.40;;;;;;;24.92;53.20;99922.19;1825204;77;21004;-84
2022/07/28 09:08:34;;;;;;;2.52;2.33;;;;;;;25.20;53.61;99932.45;1806042;77;22283;-84
2022/07/28 09:11:02;;;;;;;4.22;2.85;;;;;;;25.45;51.25;99929.94;1810956;78;21049;-83
2022/07/28 09:13:29;;;;;;;6.10;3.55;;;;;;;25.69;49.50;99933.09;1819569;78;21042;-78
2022/07/28 09:15:57;;;;;;;8.43;3.50;;;;;;;25.94;49.82;99930.26;1798056;77;21510;-80
2022/07/28 09:18:24;;;;;;;8.33;3.37;;;;;;;26.24;50.40;99926.81;1807884;77;21029;-80
2022/07/28 09:20:52;;;;;;;6.33;3.83;;;;;;;26.54;50.33;99932.08;1822903;77;22394;-80
2022/07/28 09:23:18;;;;;;;5.42;3.62;;;;;;;26.86;49.67;99937.87;1842134;76;21100;-80
2022/07/28 09:25:47;;;;;;;4.72;3.50;;;;;;;27.20;49.28;99936.78;1811267;77;21068;-79
2022/07/28 09:28:17;;;;;;;7.60;4.40;;;;;;;27.60;48.38;99938.38;1802644;77;20990;-78
2022/07/28 09:34:01;;;;;;;5.97;3.47;;;;;;;28.64;46.20;99934.98;1832741;75;22730;-80
2022/07/28 09:36:38;;;;;;;6.12;4.08;;;;;;;29.07;45.64;99942.05;1821295;76;21590;-80
2022/07/28 09:39:04;;;;;;;4.60;3.62;;;;;;;29.72;44.48;99938.16;1795028;78;21072;-79
2022/07/28 09:41:50;;;;;;;6.50;4.20;;;;;;;30.33;43.86;99940.77;1826671;77;20961;-79
2022/07/28 09:44:19;;;;;;;5.50;3.47;;;;;;;30.94;42.76;99939.84;1826579;76;21260;-81
2022/07/28 09:46:46;;;;;;;4.30;3.00;;;;;;;31.64;41.25;99941.41;1829195;76;20946;-80
2022/07/28 09:49:12;;;;;;;5.05;3.00;;;;;;;32.21;40.76;99934.25;1819694;76;21034;-87
2022/07/28 09:51:39;;;;;;;9.60;3.80;;;;;;;32.81;39.53;99931.80;1827025;78;21586;-86
2022/07/28 09:54:12;;;;;;;6.80;4.00;;;;;;;33.34;38.95;99923.33;1824602;77;20911;-84
2022/07/28 09:56:42;;;;;;;5.00;3.30;;;;;;;33.74;38.23;99932.44;1830206;76;21533;-80
2022/07/28 09:59:10;;;;;;;7.25;3.45;;;;;;;34.03;37.16;99931.87;1813960;78;21122;-75
2022/07/28 10:01:59;;;;;;;6.25;3.12;;;;;;;34.06;37.31;99931.81;1825815;76;21622;-80
2022/07/28 10:04:41;;;;;;;4.78;3.30;;;;;;;34.18;37.24;99929.27;1830175;76;21152;-82
2022/07/28 10:07:15;;;;;;;5.62;3.42;;;;;;;34.41;36.65;99926.38;1824532;76;21061;-80
2022/07/28 10:10:06;;;;;;;6.20;3.25;;;;;;;34.70;36.21;99935.41;1820266;76;21158;-79
2022/07/28 10:12:36;;;;;;;4.97;3.00;;;;;;;34.89;35.72;99930.93;1812348;78;21037;-81
2022/07/28 10:18:04;;;;;;;4.03;3.05;;;;;;;34.96;35.19;99929.84;1822282;76;21092;-79
2022/07/28 10:20:32;;;;;;;4.20;3.30;;;;;;;35.04;35.03;99934.56;1829121;76;21045;-80
2022/07/28 10:23:06;;;;;;;3.40;2.80;;;;;;;35.00;35.21;99929.45;1775178;78;21081;-82
2022/07/28 10:25:34;;;;;;;5.42;3.30;;;;;;;34.80;35.33;99932.88;1787187;78;21078;-81
2022/07/28 10:28:01;;;;;;;5.00;3.35;;;;;;;34.45;35.21;99935.62;1822039;76;21066;-80
2022/07/28 10:30:34;;;;;;;6.08;3.77;;;;;;;34.32;35.26;99929.69;1818831;78;22431;-82
2022/07/28 10:33:04;;;;;;;4.90;2.90;;;;;;;34.07;35.89;99938.94;1786327;76;21045;-82
2022/07/28 10:35:31;;;;;;;5.00;3.00;;;;;;;34.21;35.78;99936.06;1825908;76;20978;-83
2022/07/28 10:38:10;;;;;;;6.50;2.80;;;;;;;34.42;35.65;99926.60;1796087;78;21510;-84
2022/07/28 10:40:44;;;;;;;3.60;3.05;;;;;;;34.84;34.72;99935.23;1809820;76;21496;-82
2022/07/28 10:43:11;;;;;;;6.95;3.80;;;;;;;34.99;34.86;99929.20;1811142;77;21503;-84
2022/07/28 10:45:38;;;;;;;4.40;3.55;;;;;;;35.13;34.60;99926.24;1813656;77;21526;-77
2022/07/28 10:48:05;;;;;;;4.95;3.40;;;;;;;35.33;34.26;99934.44;1815811;77;21022;-77
2022/07/28 10:50:34;;;;;;;5.37;3.27;;;;;;;35.36;34.15;99931.00;1784503;78;21025;-76
2022/07/28 10:53:02;;;;;;;4.53;3.10;;;;;;;35.56;33.85;99928.64;1817782;77;21023;-76
2022/07/28 10:55:54;;;;;;;4.00;3.02;;;;;;;35.71;33.58;99934.22;1817007;77;21135;-77
2022/07/28 10:58:35;;;;;;;;;;;;;;;35.90;33.42;99931.05;1809546;77;21041;-77
2022/07/28 11:01:02;;;;;;;6.17;3.80;;;;;;;35.97;33.40;99929.95;1811480;77;20248;-76
2022/07/28 11:03:44;;;;;;;6.28;3.62;;;;;;;35.89;33.03;99926.09;1805635;77;21528;-78
2022/07/28 11:06:35;;;;;;;7.92;3.20;;;;;;;35.94;33.39;99934.76;1812037;77;21122;-76
2022/07/28 11:09:20;;;;;;;6.08;3.40;;;;;;;36.38;32.89;99934.73;1806464;77;21987;-77
2022/07/28 11:11:54;;;;;;;4.08;3.25;;;;;;;36.77;32.57;99939.55;1813695;78;21030;-75
2022/07/28 11:14:32;;;;;;;7.03;3.20;;;;;;;37.25;31.78;99933.16;1811341;77;21062;-76
2022/07/28 11:17:09;;;;;;;4.75;3.20;;;;;;;37.64;31.30;99932.30;1811131;77;21025;-75
2022/07/28 11:19:52;;;;;;;7.85;4.12;;;;;;;37.90;31.06;99931.96;1816575;77;20993;-75
2022/07/28 11:22:26;;;;;;;8.40;3.65;;;;;;;38.28;30.72;99924.41;1809689;79;21246;-79
2022/07/28 11:25:03;;;;;;;13.10;3.72;;;;;;;38.21;30.64;99926.40;1812343;77;21023;-77
2022/07/28 11:27:46;;;;;;;7.55;3.72;;;;;;;38.23;30.79;99925.47;1813878;77;21107;-77
2022/07/28 11:30:34;;;;;;;3.90;3.60;;;;;;;38.03;30.78;99923.62;1801442;77;21085;-78
2022/07/28 11:33:05;;;;;;;4.67;3.60;;;;;;;37.85;30.93;99916.14;1782453;77;21143;-76
2022/07/28 11:35:42;;;;;;;;;;;;;;;37.95;31.15;99919.23;1812121;77;21708;-76
2022/07/28 11:38:12;;;;;;;7.08;3.65;;;;;;;38.13;30.48;99912.06;1814022;77;20148;-77
2022/07/28 11:40:44;;;;;;;7.08;3.95;;;;;;;37.69;30.88;99909.11;1813307;77;21020;-77
2022/07/28 11:43:28;;;;;;;6.85;4.42;;;;;;;37.20;31.38;99913.98;1810448;77;21050;-76
2022/07/28 11:46:07;;;;;;;8.80;3.90;;;;;;;36.74;31.68;99910.36;1811807;77;21051;-75
2022/07/28 11:48:35;;;;;;;4.92;3.58;;;;;;;36.14;32.15;99910.48;1814213;76;21184;-76
2022/07/28 11:51:09;;;;;;;8.13;4.17;;;;;;;35.83;32.68;99907.52;1820874;76;21065;-75
2022/07/28 11:53:45;;;;;;;5.53;4.25;;;;;;;36.01;32.84;99907.41;1828842;76;21624;-75